createdAt,value
2023-08-07T00:00:02.440Z,0.57
2023-08-07T00:02:31.013Z,0.45
2023-08-07T00:05:00.493Z,0.40
2023-08-07T00:07:28.613Z,0.50
2023-08-07T00:09:56.600Z,0.32
2023-08-07T00:12:24.989Z,0.55
2023-08-07T00:14:53.195Z,0.88
2023-08-07T00:17:21.509Z,0.60
2023-08-07T00:19:50.056Z,0.50
2023-08-07T00:22:19.697Z,0.40
2023-08-07T00:24:48.357Z,0.70
2023-08-07T00:27:16.571Z,0.40
2023-08-07T00:29:45.093Z,0.38
2023-08-07T00:32:13.140Z,0.40
2023-08-07T00:34:41.391Z,0.63
2023-08-07T00:37:09.926Z,0.47
2023-08-07T00:39:39.603Z,0.55
2023-08-07T00:42:08.690Z,0.60
2023-08-07T00:44:37.013Z,0.40
2023-08-07T00:47:05.763Z,0.57
2023-08-07T00:49:34.624Z,0.50
2023-08-07T00:52:02.893Z,0.60
2023-08-07T00:54:34.217Z,0.70
2023-08-07T00:57:12.929Z,0.38
2023-08-07T00:59:42.351Z,0.35
2023-08-07T01:02:11.600Z,0.30
2023-08-07T01:04:40.356Z,0.30
2023-08-07T01:07:08.939Z,0.20
2023-08-07T01:09:36.968Z,0.50
2023-08-07T01:12:16.968Z,0.52
2023-08-07T01:14:53.556Z,0.47
2023-08-07T01:17:24.580Z,0.68
2023-08-07T01:19:53.736Z,0.55
2023-08-07T01:22:23.736Z,0.63
2023-08-07T01:24:52.802Z,0.60
2023-08-07T01:27:33.680Z,0.63
2023-08-07T01:30:11.584Z,0.70
2023-08-07T01:32:49.853Z,0.63
2023-08-07T01:35:21.091Z,0.50
2023-08-07T01:37:51.925Z,0.40
2023-08-07T01:40:21.270Z,0.50
2023-08-07T01:42:49.964Z,0.50
2023-08-07T01:45:25.173Z,0.52
2023-08-07T01:47:53.947Z,0.38
2023-08-07T01:50:22.508Z,0.50
2023-08-07T01:52:52.731Z,0.73
2023-08-07T01:55:22.154Z,0.50
2023-08-07T01:57:50.402Z,0.73
2023-08-07T02:00:18.707Z,0.68
2023-08-07T02:02:48.251Z,0.52
2023-08-07T02:05:17.719Z,0.50
2023-08-07T02:07:46.298Z,0.40
2023-08-07T02:10:15.759Z,0.70
2023-08-07T02:12:43.798Z,0.55
2023-08-07T02:15:12.372Z,0.70
2023-08-07T02:17:42.624Z,0.63
2023-08-07T02:20:12.643Z,0.95
2023-08-07T02:22:40.747Z,0.68
2023-08-07T02:25:09.771Z,0.70
2023-08-07T02:27:40.932Z,0.57
2023-08-07T02:30:09.851Z,0.82
2023-08-07T02:32:38.030Z,1.02
2023-08-07T02:35:06.975Z,0.80
2023-08-07T02:37:34.989Z,0.60
2023-08-07T02:40:03.395Z,0.70
2023-08-07T02:42:31.332Z,0.50
2023-08-07T02:45:00.958Z,1.05
2023-08-07T02:47:29.170Z,0.70
2023-08-07T02:49:57.159Z,1.00
2023-08-07T02:52:25.289Z,0.93
2023-08-07T02:54:53.320Z,1.02
2023-08-07T02:57:21.827Z,0.80
2023-08-07T02:59:50.279Z,0.90
2023-08-07T03:02:19.800Z,0.82
2023-08-07T03:04:47.901Z,1.55
2023-08-07T03:07:16.349Z,0.82
2023-08-07T03:09:49.125Z,0.70
2023-08-07T03:12:17.508Z,0.93
2023-08-07T03:14:45.595Z,0.85
2023-08-07T03:17:14.168Z,0.70
2023-08-07T03:19:45.491Z,0.85
2023-08-07T03:22:13.672Z,1.00
2023-08-07T03:24:41.836Z,1.30
2023-08-07T03:27:10.274Z,1.00
2023-08-07T03:29:38.429Z,1.92
2023-08-07T03:32:06.710Z,1.10
2023-08-07T03:34:34.874Z,0.85
2023-08-07T03:37:04.612Z,1.10
2023-08-07T03:39:32.781Z,1.00
2023-08-07T03:42:00.796Z,1.30
2023-08-07T03:44:30.095Z,1.08
2023-08-07T03:47:00.420Z,1.15
2023-08-07T03:49:30.028Z,1.23
2023-08-07T03:52:01.184Z,1.60
2023-08-07T03:54:30.537Z,1.20
2023-08-07T03:56:58.570Z,1.75
2023-08-07T03:59:26.877Z,1.85
2023-08-07T04:01:55.504Z,1.10
2023-08-07T04:04:23.933Z,1.50
2023-08-07T04:06:52.007Z,1.05
2023-08-07T04:09:20.227Z,2.45
2023-08-07T04:11:49.691Z,2.30
2023-08-07T04:14:17.825Z,2.53
2023-08-07T04:16:47.521Z,2.95
2023-08-07T04:19:15.566Z,4.30
2023-08-07T04:21:44.191Z,4.32
2023-08-07T04:24:12.616Z,3.28
2023-08-07T04:26:41.097Z,2.50
2023-08-07T04:29:12.130Z,2.03
2023-08-07T04:31:40.130Z,1.92
2023-08-07T04:34:08.374Z,2.33
2023-08-07T04:36:36.444Z,2.40
2023-08-07T04:39:04.668Z,1.85
2023-08-07T04:41:32.703Z,2.33
2023-08-07T04:44:00.943Z,2.42
2023-08-07T04:46:31.337Z,1.92
2023-08-07T04:49:00.829Z,2.00
2023-08-07T04:51:31.563Z,2.10
2023-08-07T04:54:00.488Z,2.05
2023-08-07T04:56:28.714Z,1.95
2023-08-07T04:58:56.772Z,2.17
2023-08-07T05:01:24.958Z,2.40
2023-08-07T05:03:54.728Z,2.60
2023-08-07T05:06:23.324Z,2.05
2023-08-07T05:08:51.400Z,2.22
2023-08-07T05:11:21.509Z,2.00
2023-08-07T05:13:50.031Z,2.30
2023-08-07T05:16:20.140Z,2.83
2023-08-07T05:18:50.738Z,2.05
2023-08-07T05:21:20.962Z,2.00
2023-08-07T05:23:49.246Z,1.80
2023-08-07T05:26:20.457Z,2.20
2023-08-07T05:28:48.982Z,1.55
2023-08-07T05:31:17.198Z,2.15
2023-08-07T05:33:45.289Z,2.45
2023-08-07T05:36:13.371Z,2.65
2023-08-07T05:38:42.748Z,1.90
2023-08-07T05:41:11.287Z,2.38
2023-08-07T05:43:39.527Z,2.25
2023-08-07T05:46:07.593Z,2.08
2023-08-07T05:48:35.895Z,1.92
2023-08-07T05:51:04.196Z,1.50
2023-08-07T05:53:32.625Z,1.80
2023-08-07T05:56:02.063Z,2.10
2023-08-07T05:58:30.332Z,2.63
2023-08-07T06:00:58.309Z,2.47
2023-08-07T06:03:26.562Z,2.10
2023-08-07T06:05:54.576Z,1.60
2023-08-07T06:08:22.861Z,1.48
2023-08-07T06:10:50.936Z,1.73
2023-08-07T06:13:34.199Z,2.10
2023-08-07T06:16:04.057Z,1.60
2023-08-07T06:18:32.217Z,2.00
2023-08-07T06:21:00.532Z,1.83
2023-08-07T06:23:28.791Z,1.73
2023-08-07T06:25:59.863Z,1.40
2023-08-07T06:28:29.692Z,1.30
2023-08-07T06:31:04.721Z,1.48
2023-08-07T06:33:34.415Z,1.75
2023-08-07T06:36:03.019Z,1.35
2023-08-07T06:38:31.706Z,2.05
2023-08-07T06:41:00.165Z,2.03
2023-08-07T06:43:29.705Z,1.90
2023-08-07T06:45:59.153Z,1.92
2023-08-07T06:48:27.244Z,2.13
2023-08-07T06:50:55.520Z,1.75
2023-08-07T06:53:23.611Z,1.58
2023-08-07T06:55:52.908Z,1.95
2023-08-07T06:58:22.257Z,1.95
2023-08-07T07:00:52.216Z,1.65
2023-08-07T07:03:21.429Z,1.88
2023-08-07T07:05:51.618Z,1.80
2023-08-07T07:08:19.693Z,1.98
2023-08-07T07:10:47.846Z,2.10
2023-08-07T07:13:16.064Z,1.83
2023-08-07T07:15:44.248Z,1.98
2023-08-07T07:18:13.983Z,1.55
2023-08-07T07:20:41.973Z,1.70
2023-08-07T07:23:09.150Z,1.75
2023-08-07T07:25:37.461Z,1.80
2023-08-07T07:28:05.905Z,1.60
2023-08-07T07:30:34.281Z,1.98
2023-08-07T07:33:02.322Z,2.03
2023-08-07T07:35:31.890Z,2.72
2023-08-07T07:37:59.954Z,1.50
2023-08-07T07:40:28.224Z,1.67
2023-08-07T07:42:56.667Z,1.30
2023-08-07T07:45:24.850Z,1.95
2023-08-07T07:47:53.346Z,1.75
2023-08-07T07:50:21.830Z,1.77
2023-08-07T07:52:51.618Z,2.60
2023-08-07T07:55:19.700Z,2.45
2023-08-07T07:57:48.238Z,1.77
2023-08-07T08:00:17.285Z,1.38
2023-08-07T08:02:45.369Z,1.88
2023-08-07T08:05:13.811Z,2.70
2023-08-07T08:07:42.132Z,2.00
2023-08-07T08:10:13.487Z,1.83
2023-08-07T08:12:41.875Z,2.25
2023-08-07T08:15:11.723Z,1.65
2023-08-07T08:17:40.258Z,1.70
2023-08-07T08:20:09.756Z,1.90
2023-08-07T08:22:37.954Z,2.35
2023-08-07T08:25:07.823Z,2.63
2023-08-07T08:27:37.579Z,2.20
2023-08-07T08:30:06.727Z,1.70
2023-08-07T08:32:35.208Z,1.95
2023-08-07T08:35:03.378Z,2.00
2023-08-07T08:37:31.668Z,2.00
2023-08-07T08:40:00.839Z,1.92
2023-08-07T08:42:29.523Z,2.17
2023-08-07T08:45:00.555Z,1.80
2023-08-07T08:47:29.669Z,1.70
2023-08-07T08:50:03.875Z,2.15
2023-08-07T08:52:33.990Z,2.50
2023-08-07T08:55:03.079Z,2.47
2023-08-07T08:57:32.204Z,1.65
2023-08-07T09:00:02.915Z,2.17
2023-08-07T09:02:31.179Z,2.05
2023-08-07T09:04:59.479Z,2.00
2023-08-07T09:07:29.923Z,1.95
2023-08-07T09:10:00.049Z,2.10
2023-08-07T09:12:31.591Z,1.85
2023-08-07T09:15:04.157Z,1.73
2023-08-07T09:17:36.156Z,1.65
2023-08-07T09:20:07.798Z,1.70
2023-08-07T09:22:36.925Z,1.75
2023-08-07T09:25:05.197Z,2.00
2023-08-07T09:27:34.321Z,1.50
2023-08-07T09:30:04.396Z,1.98
2023-08-07T09:32:32.889Z,1.80
2023-08-07T09:35:01.387Z,1.70
2023-08-07T09:37:29.534Z,2.38
2023-08-07T09:39:58.375Z,2.00
2023-08-07T09:42:26.697Z,1.90
2023-08-07T09:44:55.033Z,1.48
2023-08-07T09:47:25.074Z,1.10
2023-08-07T09:49:57.205Z,1.40
2023-08-07T09:52:29.602Z,1.52
2023-08-07T09:54:59.417Z,1.42
2023-08-07T09:57:28.159Z,1.90
2023-08-07T09:59:56.901Z,1.42
2023-08-07T10:02:26.607Z,1.40
2023-08-07T10:04:56.013Z,2.30
2023-08-07T10:07:25.029Z,1.50
2023-08-07T10:09:53.298Z,2.08
2023-08-07T10:12:23.322Z,1.73
2023-08-07T10:14:53.113Z,1.50
2023-08-07T10:17:23.928Z,1.80
2023-08-07T10:19:54.344Z,1.20
2023-08-07T10:22:25.688Z,1.60
2023-08-07T10:24:56.070Z,2.05
2023-08-07T10:27:26.791Z,1.60
2023-08-07T10:29:56.443Z,1.85
2023-08-07T10:32:26.590Z,1.50
2023-08-07T10:34:57.047Z,1.13
2023-08-07T10:37:44.636Z,1.67
2023-08-07T10:40:14.657Z,1.50
2023-08-07T10:43:00.083Z,1.88
2023-08-07T10:45:30.029Z,2.17
2023-08-07T10:48:05.514Z,1.63
2023-08-07T10:50:36.526Z,1.40
2023-08-07T10:53:05.500Z,1.77
2023-08-07T10:55:45.060Z,1.38
2023-08-07T10:58:24.904Z,1.48
2023-08-07T11:00:54.198Z,1.95
2023-08-07T11:03:28.809Z,2.30
2023-08-07T11:06:00.602Z,1.95
2023-08-07T11:08:30.901Z,1.52
2023-08-07T11:11:06.461Z,1.63
2023-08-07T11:13:35.367Z,1.65
2023-08-07T11:16:06.800Z,2.08
2023-08-07T11:18:36.912Z,1.40
2023-08-07T11:21:06.959Z,1.67
2023-08-07T11:23:36.796Z,1.40
2023-08-07T11:26:05.267Z,2.03
2023-08-07T11:28:34.056Z,1.73
2023-08-07T11:31:02.995Z,1.60
2023-08-07T11:33:32.027Z,1.50
2023-08-07T11:36:00.320Z,1.25
2023-08-07T11:38:34.619Z,1.50
2023-08-07T11:41:04.675Z,1.20
2023-08-07T11:43:35.010Z,1.88
2023-08-07T11:46:05.940Z,1.48
2023-08-07T11:48:35.555Z,1.80
2023-08-07T11:51:04.525Z,1.70
2023-08-07T11:53:36.962Z,2.35
2023-08-07T11:56:07.025Z,1.40
2023-08-07T11:58:37.333Z,1.33
2023-08-07T12:01:11.698Z,1.60
2023-08-07T12:03:41.174Z,1.38
2023-08-07T12:06:10.427Z,1.80
2023-08-07T12:08:41.163Z,1.38
2023-08-07T12:11:11.386Z,1.63
2023-08-07T12:13:40.792Z,1.70
2023-08-07T12:16:09.644Z,1.35
2023-08-07T12:18:40.026Z,1.65
2023-08-07T12:21:10.188Z,1.33
2023-08-07T12:23:41.760Z,1.33
2023-08-07T12:26:11.103Z,1.40
2023-08-07T12:28:39.354Z,1.45
2023-08-07T12:31:08.367Z,1.25
2023-08-07T12:33:36.724Z,1.45
2023-08-07T12:36:05.393Z,1.30
2023-08-07T12:38:33.541Z,1.25
2023-08-07T12:41:04.448Z,1.08
2023-08-07T12:43:32.681Z,1.30
2023-08-07T12:48:33.929Z,1.60
2023-08-07T12:51:02.387Z,1.50
2023-08-07T12:53:32.983Z,1.30
2023-08-07T12:56:04.169Z,1.40
2023-08-07T12:58:32.164Z,1.50
2023-08-07T13:01:00.645Z,1.40
2023-08-07T13:03:29.073Z,1.40
2023-08-07T13:05:57.088Z,1.40
2023-08-07T13:08:25.339Z,1.60
2023-08-07T13:10:53.627Z,1.45
2023-08-07T13:13:23.254Z,1.73
2023-08-07T13:15:52.805Z,1.85
2023-08-07T13:18:22.710Z,1.27
2023-08-07T13:20:51.615Z,1.90
2023-08-07T13:23:19.981Z,1.17
2023-08-07T13:25:48.216Z,1.02
2023-08-07T13:28:16.476Z,1.38
2023-08-07T13:30:46.170Z,1.40
2023-08-07T13:33:16.469Z,1.33
2023-08-07T13:35:46.122Z,1.23
2023-08-07T13:38:16.197Z,1.25
2023-08-07T13:40:45.708Z,1.20
2023-08-07T13:43:15.122Z,1.20
2023-08-07T13:45:43.374Z,1.13
2023-08-07T13:48:13.041Z,1.33
2023-08-07T13:50:42.394Z,2.15
2023-08-07T13:53:15.045Z,1.40
2023-08-07T13:55:45.066Z,1.70
2023-08-07T13:58:16.763Z,1.75
2023-08-07T14:00:45.084Z,1.35
2023-08-07T14:03:15.555Z,1.17
2023-08-07T14:05:44.141Z,1.80
2023-08-07T14:08:12.440Z,1.60
2023-08-07T14:10:42.503Z,1.77
2023-08-07T14:13:12.833Z,1.85
2023-08-07T14:15:41.758Z,1.88
2023-08-07T14:18:09.975Z,1.65
2023-08-07T14:20:52.156Z,1.33
2023-08-07T14:23:30.659Z,1.23
2023-08-07T14:26:00.559Z,1.50
2023-08-07T14:28:29.962Z,1.60
2023-08-07T14:31:01.604Z,1.33
2023-08-07T14:33:30.880Z,1.40
2023-08-07T14:36:01.593Z,2.13
2023-08-07T14:38:30.123Z,1.60
2023-08-07T14:41:00.627Z,1.52
2023-08-07T14:43:32.587Z,1.50
2023-08-07T14:46:00.934Z,2.90
2023-08-07T14:48:31.965Z,1.65
2023-08-07T14:51:02.653Z,1.58
2023-08-07T14:53:30.863Z,1.85
2023-08-07T14:55:59.145Z,1.38
2023-08-07T14:58:27.299Z,1.83
2023-08-07T15:00:56.637Z,2.33
2023-08-07T15:03:24.864Z,2.30
2023-08-07T15:05:53.547Z,2.08
2023-08-07T15:08:23.674Z,1.50
2023-08-07T15:10:54.592Z,2.03
2023-08-07T15:13:23.315Z,1.88
2023-08-07T15:15:52.914Z,1.90
2023-08-07T15:18:21.164Z,1.52
2023-08-07T15:20:50.724Z,1.60
2023-08-07T15:23:19.033Z,1.42
2023-08-07T15:25:49.303Z,1.30
2023-08-07T15:28:17.399Z,1.08
2023-08-07T15:30:50.842Z,1.90
2023-08-07T15:33:20.839Z,1.75
2023-08-07T15:35:52.969Z,1.63
2023-08-07T15:38:21.556Z,1.95
2023-08-07T15:40:51.252Z,1.70
2023-08-07T15:43:19.794Z,2.30
2023-08-07T15:45:49.309Z,1.50
2023-08-07T15:48:19.144Z,1.70
2023-08-07T15:50:47.508Z,1.50
2023-08-07T15:53:15.886Z,1.67
2023-08-07T15:55:43.947Z,1.63
2023-08-07T15:58:13.646Z,1.52
2023-08-07T16:00:41.876Z,1.58
2023-08-07T16:03:11.439Z,1.88
2023-08-07T16:05:40.741Z,1.50
2023-08-07T16:08:09.840Z,1.40
2023-08-07T16:10:39.942Z,1.70
2023-08-07T16:13:08.464Z,1.60
2023-08-07T16:15:39.257Z,1.00
2023-08-07T16:18:07.859Z,1.65
2023-08-07T16:20:36.533Z,1.50
2023-08-07T16:23:04.938Z,1.60
2023-08-07T16:25:33.793Z,1.40
2023-08-07T16:28:03.368Z,1.45
2023-08-07T16:30:31.610Z,1.30
2023-08-07T16:33:01.387Z,1.38
2023-08-07T16:35:29.975Z,1.50
2023-08-07T16:37:58.140Z,1.70
2023-08-07T16:40:26.696Z,1.15
2023-08-07T16:42:55.279Z,1.70
2023-08-07T16:45:24.828Z,1.02
2023-08-07T16:47:53.096Z,1.60
2023-08-07T16:50:22.959Z,1.58
2023-08-07T16:52:51.261Z,1.60
2023-08-07T16:55:19.602Z,1.23
2023-08-07T16:57:48.131Z,1.65
2023-08-07T17:00:16.979Z,1.17
2023-08-07T17:02:47.198Z,1.13
2023-08-07T17:05:15.503Z,1.45
2023-08-07T17:07:44.872Z,1.42
2023-08-07T17:10:14.567Z,1.23
2023-08-07T17:12:43.933Z,1.58
2023-08-07T17:15:12.566Z,1.65
2023-08-07T17:17:40.984Z,1.55
2023-08-07T17:20:09.823Z,1.70
2023-08-07T17:22:38.935Z,1.10
2023-08-07T17:25:09.665Z,1.88
2023-08-07T17:27:38.013Z,1.60
2023-08-07T17:30:07.468Z,1.20
2023-08-07T17:32:38.149Z,1.50
2023-08-07T17:35:07.611Z,1.98
2023-08-07T17:37:35.844Z,1.20
2023-08-07T17:40:04.548Z,1.40
2023-08-07T17:42:34.146Z,1.25
2023-08-07T17:45:03.417Z,1.77
2023-08-07T17:47:31.993Z,1.50
2023-08-07T17:50:00.599Z,1.58
2023-08-07T17:52:31.116Z,1.90
2023-08-07T17:54:59.286Z,1.70
2023-08-07T17:57:27.488Z,1.17
2023-08-07T17:59:57.123Z,1.38
2023-08-07T18:02:26.801Z,1.27
2023-08-07T18:04:55.303Z,1.55
2023-08-07T18:07:23.960Z,1.30
2023-08-07T18:09:52.126Z,1.42
2023-08-07T18:12:21.170Z,1.58
2023-08-07T18:14:49.296Z,1.85
2023-08-07T18:17:18.789Z,1.90
2023-08-07T18:19:47.445Z,1.58
2023-08-07T18:22:15.788Z,1.30
2023-08-07T18:24:44.967Z,2.03
2023-08-07T18:27:14.265Z,1.27
2023-08-07T18:29:43.417Z,1.85
2023-08-07T18:32:11.786Z,1.70
2023-08-07T18:34:41.510Z,1.63
2023-08-07T18:37:09.573Z,1.35
2023-08-07T18:39:37.702Z,1.40
2023-08-07T18:42:06.326Z,1.40
2023-08-07T18:44:34.916Z,1.38
2023-08-07T18:47:03.652Z,1.45
2023-08-07T18:49:32.567Z,1.40
2023-08-07T18:52:05.232Z,1.48
2023-08-07T18:54:33.545Z,1.42
2023-08-07T18:57:03.415Z,1.70
2023-08-07T18:59:34.103Z,1.67
2023-08-07T19:02:02.207Z,1.20
2023-08-07T19:04:30.996Z,1.88
2023-08-07T19:06:59.896Z,1.50
2023-08-07T19:09:30.477Z,1.42
2023-08-07T19:11:58.908Z,2.95
2023-08-07T19:14:27.519Z,1.58
2023-08-07T19:16:55.730Z,1.67
2023-08-07T19:19:24.253Z,1.40
2023-08-07T19:21:52.389Z,2.03
2023-08-07T19:24:21.073Z,1.73
2023-08-07T19:26:50.633Z,1.50
2023-08-07T19:29:19.300Z,1.77
2023-08-07T19:31:47.628Z,1.88
2023-08-07T19:34:17.574Z,2.55
2023-08-07T19:36:46.058Z,1.60
2023-08-07T19:39:14.718Z,2.10
2023-08-07T19:41:42.896Z,2.20
2023-08-07T19:44:12.392Z,2.20
2023-08-07T19:46:40.609Z,2.00
2023-08-07T19:49:08.778Z,2.80
2023-08-07T19:51:37.397Z,2.00
2023-08-07T19:54:05.916Z,2.05
2023-08-07T19:56:36.836Z,2.10
2023-08-07T19:59:06.220Z,2.42
2023-08-07T20:01:36.145Z,2.00
2023-08-07T20:04:04.737Z,2.55
2023-08-07T20:06:33.526Z,2.60
2023-08-07T20:09:02.538Z,2.13
2023-08-07T20:11:38.242Z,2.13
2023-08-07T20:14:06.622Z,2.40
2023-08-07T20:16:36.688Z,1.85
2023-08-07T20:19:04.888Z,1.65
2023-08-07T20:21:33.657Z,2.30
2023-08-07T20:24:01.742Z,1.92
2023-08-07T20:26:34.032Z,2.65
2023-08-07T20:29:02.402Z,1.95
2023-08-07T20:31:30.623Z,2.10
2023-08-07T20:34:00.253Z,2.55
2023-08-07T20:36:29.799Z,2.53
2023-08-07T20:38:58.670Z,2.67
2023-08-07T20:41:27.279Z,2.60
2023-08-07T20:43:57.280Z,2.40
2023-08-07T20:46:25.563Z,2.30
2023-08-07T20:48:53.929Z,3.60
2023-08-07T20:51:23.875Z,2.38
2023-08-07T20:53:52.353Z,1.77
2023-08-07T20:56:20.952Z,2.00
2023-08-07T20:58:49.046Z,2.00
2023-08-07T21:01:17.227Z,1.70
2023-08-07T21:03:45.463Z,1.70
2023-08-07T21:06:13.648Z,1.23
2023-08-07T21:08:43.069Z,1.80
2023-08-07T21:11:11.129Z,1.90
2023-08-07T21:13:39.927Z,2.05
2023-08-07T21:16:08.834Z,1.45
2023-08-07T21:18:36.903Z,2.13
2023-08-07T21:21:05.100Z,1.58
2023-08-07T21:23:35.690Z,2.10
2023-08-07T21:26:05.560Z,1.73
2023-08-07T21:28:33.789Z,2.60
2023-08-07T21:31:02.118Z,2.00
2023-08-07T21:33:30.419Z,1.75
2023-08-07T21:35:59.771Z,2.13
2023-08-07T21:38:28.385Z,2.28
2023-08-07T21:40:56.536Z,2.53
2023-08-07T21:43:26.659Z,2.45
2023-08-07T21:45:54.655Z,2.40
2023-08-07T21:48:22.712Z,2.40
2023-08-07T21:50:51.280Z,2.42
2023-08-07T21:53:19.332Z,2.20
2023-08-07T21:55:47.806Z,2.30
2023-08-07T21:58:16.371Z,1.75
2023-08-07T22:00:48.510Z,2.67
2023-08-07T22:03:16.726Z,2.47
2023-08-07T22:05:44.896Z,2.25
2023-08-07T22:08:12.954Z,2.10
2023-08-07T22:10:41.370Z,2.33
2023-08-07T22:13:09.441Z,1.90
2023-08-07T22:15:37.598Z,2.08
2023-08-07T22:18:07.462Z,2.50
2023-08-07T22:20:35.619Z,2.42
2023-08-07T22:23:03.743Z,2.63
2023-08-07T22:25:32.150Z,2.20
2023-08-07T22:28:00.379Z,2.67
2023-08-07T22:30:28.635Z,2.15
2023-08-07T22:32:56.961Z,2.92
2023-08-07T22:35:26.992Z,2.63
2023-08-07T22:37:55.144Z,2.60
2023-08-07T22:40:23.491Z,2.90
2023-08-07T22:42:51.592Z,2.67
2023-08-07T22:45:19.862Z,2.70
2023-08-07T22:47:48.507Z,2.50
2023-08-07T22:50:16.862Z,2.63
2023-08-07T22:52:46.433Z,2.53
2023-08-07T22:55:14.676Z,2.35
2023-08-07T22:57:42.789Z,2.60
2023-08-07T23:00:13.498Z,2.95
2023-08-07T23:02:41.944Z,2.58
2023-08-07T23:05:10.223Z,3.08
2023-08-07T23:07:39.689Z,3.40
2023-08-07T23:10:10.244Z,3.17
2023-08-07T23:12:38.258Z,2.70
2023-08-07T23:15:07.209Z,2.50
2023-08-07T23:17:35.782Z,3.15
2023-08-07T23:20:05.315Z,2.50
2023-08-07T23:22:33.392Z,2.50
2023-08-07T23:25:03.902Z,2.70
2023-08-07T23:27:33.537Z,2.50
2023-08-07T23:30:01.793Z,3.42
2023-08-07T23:32:29.896Z,2.35
2023-08-07T23:34:58.084Z,2.85
2023-08-07T23:37:26.308Z,2.40
2023-08-07T23:39:54.829Z,2.20
2023-08-07T23:42:23.199Z,2.97
2023-08-07T23:44:52.809Z,2.60
2023-08-07T23:47:21.043Z,3.25
2023-08-07T23:49:49.210Z,2.75
2023-08-07T23:52:17.466Z,2.28
2023-08-07T23:54:45.776Z,2.80
2023-08-07T23:57:14.013Z,2.45
2023-08-07T23:59:42.120Z,3.40
